createdAt,value
2022-08-03T00:00:54.154Z,22.43
2022-08-03T00:02:08.449Z,22.4
2022-08-03T00:03:12.863Z,22.35
2022-08-03T00:04:17.974Z,22.35
2022-08-03T00:05:22.388Z,22.33
2022-08-03T00:06:37.494Z,22.3
2022-08-03T00:07:41.604Z,22.27
2022-08-03T00:08:51.561Z,22.24
2022-08-03T00:09:57.303Z,22.22
2022-08-03T00:11:01.683Z,22.19
2022-08-03T00:12:11.754Z,22.17
2022-08-03T00:13:16.069Z,22.15
2022-08-03T00:14:20.550Z,22.14
2022-08-03T00:15:26.086Z,22.12
2022-08-03T00:16:32.762Z,22.09
2022-08-03T00:17:51.937Z,22.04
2022-08-03T00:19:01.199Z,22.02
2022-08-03T00:20:05.377Z,22.01
2022-08-03T00:21:09.837Z,21.98
2022-08-03T00:22:15.189Z,21.95
2022-08-03T00:23:24.536Z,21.91
2022-08-03T00:24:28.848Z,21.9
2022-08-03T00:25:33.405Z,21.88
2022-08-03T00:26:37.813Z,21.82
2022-08-03T00:27:42.298Z,21.8
2022-08-03T00:28:46.793Z,21.77
2022-08-03T00:30:00.703Z,21.76
2022-08-03T00:31:04.853Z,21.74
2022-08-03T00:32:13.424Z,21.73
2022-08-03T00:33:22.003Z,21.74
2022-08-03T00:34:36.261Z,21.69
2022-08-03T00:35:51.387Z,21.65
2022-08-03T00:36:55.730Z,21.66
2022-08-03T00:38:00.697Z,21.65
2022-08-03T00:39:05.054Z,21.63
2022-08-03T00:40:15.180Z,21.6
2022-08-03T00:41:19.386Z,21.59
2022-08-03T00:42:29.371Z,21.55
2022-08-03T00:43:33.608Z,21.53
2022-08-03T00:44:38.164Z,21.51
2022-08-03T00:45:42.650Z,21.5
2022-08-03T00:46:47.145Z,21.49
2022-08-03T00:47:51.650Z,21.44
2022-08-03T00:48:56.823Z,21.41
2022-08-03T00:50:02.411Z,21.39
2022-08-03T00:51:07.157Z,21.35
2022-08-03T00:52:11.648Z,21.33
2022-08-03T00:53:21.730Z,21.31
2022-08-03T00:54:25.983Z,21.28
2022-08-03T00:55:30.365Z,21.27
2022-08-03T00:56:34.850Z,21.25
2022-08-03T00:57:39.327Z,21.18
2022-08-03T00:58:43.823Z,21.14
2022-08-03T00:59:58.329Z,21.11
2022-08-03T01:01:02.731Z,21.1
2022-08-03T01:02:08.791Z,21.07
2022-08-03T01:03:23.700Z,21.07
2022-08-03T01:04:28.643Z,21.05
2022-08-03T01:05:33.005Z,21.04
2022-08-03T01:06:37.492Z,21.04
2022-08-03T01:07:46.496Z,21.02
2022-08-03T01:08:56.261Z,21.02
2022-08-03T01:10:02.138Z,21
2022-08-03T01:11:06.453Z,20.99
2022-08-03T01:12:15.482Z,20.97
2022-08-03T01:13:59.124Z,20.97
2022-08-03T01:14:44.470Z,20.93
2022-08-03T01:15:48.922Z,20.94
2022-08-03T01:16:53.364Z,20.94
2022-08-03T01:18:01.623Z,20.94
2022-08-03T01:19:06.162Z,20.91
2022-08-03T01:20:24.630Z,20.88
2022-08-03T01:21:29.734Z,20.87
2022-08-03T01:22:34.656Z,20.85
2022-08-03T01:23:39.104Z,20.84
2022-08-03T01:24:43.883Z,20.84
2022-08-03T01:25:54.763Z,20.82
2022-08-03T01:26:58.981Z,20.8
2022-08-03T01:28:03.423Z,20.78
2022-08-03T01:29:13.440Z,20.77
2022-08-03T01:30:19.275Z,20.74
2022-08-03T01:31:28.071Z,20.73
2022-08-03T01:32:52.182Z,20.72
2022-08-03T01:33:56.153Z,20.71
2022-08-03T01:35:01.143Z,20.71
2022-08-03T01:36:05.704Z,20.71
2022-08-03T01:37:10.171Z,20.69
2022-08-03T01:38:14.644Z,20.69
2022-08-03T01:39:19.153Z,20.68
2022-08-03T01:40:33.431Z,20.67
2022-08-03T01:41:37.566Z,20.66
2022-08-03T01:42:42.018Z,20.64
2022-08-03T01:44:26.229Z,20.64
2022-08-03T01:45:12.143Z,20.64
2022-08-03T01:46:16.619Z,20.65
2022-08-03T01:47:21.071Z,20.65
2022-08-03T01:48:25.561Z,20.65
2022-08-03T01:49:44.254Z,20.66
2022-08-03T01:50:48.429Z,20.67
2022-08-03T01:52:05.180Z,20.65
2022-08-03T01:53:11.271Z,20.65
2022-08-03T01:54:15.575Z,20.65
2022-08-03T01:55:20.680Z,20.65
2022-08-03T01:56:26.819Z,20.65
2022-08-03T01:57:31.249Z,20.62
2022-08-03T01:58:35.750Z,20.6
2022-08-03T01:59:43.597Z,20.58
2022-08-03T02:00:48.205Z,20.54
2022-08-03T02:02:15.044Z,20.5
2022-08-03T02:03:21.661Z,20.46
2022-08-03T02:04:25.951Z,20.43
2022-08-03T02:05:30.443Z,20.43
2022-08-03T02:06:55.669Z,20.4
2022-08-03T02:07:58.770Z,20.39
2022-08-03T02:09:03.186Z,20.39
2022-08-03T02:10:07.633Z,20.38
2022-08-03T02:11:12.127Z,20.37
2022-08-03T02:12:17.532Z,20.34
2022-08-03T02:13:26.949Z,20.32
2022-08-03T02:14:31.269Z,20.32
2022-08-03T02:15:35.823Z,20.3
2022-08-03T02:16:41.856Z,20.28
2022-08-03T02:17:46.166Z,20.27
2022-08-03T02:18:51.151Z,20.24
2022-08-03T02:19:56.105Z,20.2
2022-08-03T02:21:11.493Z,20.19
2022-08-03T02:22:25.969Z,20.19
2022-08-03T02:23:36.098Z,20.19
2022-08-03T02:24:51.314Z,20.18
2022-08-03T02:26:02.113Z,20.19
2022-08-03T02:27:06.279Z,20.21
2022-08-03T02:28:10.757Z,20.21
2022-08-03T02:29:15.238Z,20.22
2022-08-03T02:30:19.743Z,20.23
2022-08-03T02:31:24.231Z,20.24
2022-08-03T02:32:32.202Z,20.24
2022-08-03T02:33:36.648Z,20.24
2022-08-03T02:34:46.663Z,20.24
2022-08-03T02:35:50.907Z,20.25
2022-08-03T02:36:55.457Z,20.26
2022-08-03T02:38:05.476Z,20.26
2022-08-03T02:39:09.783Z,20.25
2022-08-03T02:40:14.454Z,20.24
2022-08-03T02:41:24.833Z,20.25
2022-08-03T02:42:29.553Z,20.25
2022-08-03T02:44:06.788Z,20.24
2022-08-03T02:44:59.441Z,20.27
2022-08-03T02:46:03.687Z,20.26
2022-08-03T02:47:08.464Z,20.28
2022-08-03T02:48:13.248Z,20.26
2022-08-03T02:49:35.226Z,20.25
2022-08-03T02:50:41.602Z,20.24
2022-08-03T02:51:50.550Z,20.21
2022-08-03T02:52:54.750Z,20.22
2022-08-03T02:53:59.226Z,20.22
2022-08-03T02:55:03.711Z,20.22
2022-08-03T02:56:08.146Z,20.2
2022-08-03T02:57:12.674Z,20.19
2022-08-03T02:58:17.143Z,20.17
2022-08-03T02:59:21.649Z,20.15
2022-08-03T03:00:31.097Z,20.14
2022-08-03T03:01:35.849Z,20.12
2022-08-03T03:02:45.274Z,20.1
2022-08-03T03:03:51.120Z,20.08
2022-08-03T03:05:53.849Z,20.07
2022-08-03T03:06:22.529Z,20.06
2022-08-03T03:07:51.216Z,20.07
2022-08-03T03:09:00.162Z,20.09
2022-08-03T03:10:04.420Z,20.1
2022-08-03T03:11:12.381Z,20.11
2022-08-03T03:12:17.682Z,20.1
2022-08-03T03:13:22.396Z,20.09
2022-08-03T03:14:34.201Z,20.09
2022-08-03T03:15:38.455Z,20.09
2022-08-03T03:16:43.306Z,20.08
2022-08-03T03:17:49.313Z,20.08
2022-08-03T03:18:53.559Z,20.08
2022-08-03T03:19:58.030Z,20.07
2022-08-03T03:21:02.502Z,20.06
2022-08-03T03:22:07.013Z,20.04
2022-08-03T03:23:11.488Z,20.01
2022-08-03T03:24:15.993Z,20.01
2022-08-03T03:25:23.955Z,20
2022-08-03T03:26:31.826Z,19.98
2022-08-03T03:27:47.158Z,19.96
2022-08-03T03:28:55.494Z,19.96
2022-08-03T03:29:59.907Z,19.96
2022-08-03T03:31:04.376Z,19.96
2022-08-03T03:32:09.542Z,19.96
2022-08-03T03:33:14.101Z,19.95
2022-08-03T03:34:19.404Z,19.94
2022-08-03T03:35:42.393Z,19.92
2022-08-03T03:36:54.895Z,19.9
2022-08-03T03:37:59.229Z,19.88
2022-08-03T03:39:17.650Z,19.89
2022-08-03T03:41:51.752Z,19.87
2022-08-03T03:42:55.346Z,19.88
2022-08-03T03:43:59.657Z,19.9
2022-08-03T03:45:04.109Z,19.93
2022-08-03T03:46:12.229Z,19.93
2022-08-03T03:47:33.161Z,19.91
2022-08-03T03:48:37.063Z,19.89
2022-08-03T03:49:52.624Z,19.87
2022-08-03T03:50:56.654Z,19.84
2022-08-03T03:52:05.755Z,19.81
2022-08-03T03:53:09.976Z,19.81
2022-08-03T03:54:14.478Z,19.79
2022-08-03T03:55:19.415Z,19.76
2022-08-03T03:56:23.780Z,19.73
2022-08-03T03:57:31.815Z,19.7
2022-08-03T03:58:36.195Z,19.69
2022-08-03T03:59:40.667Z,19.67
2022-08-03T04:00:46.297Z,19.65
2022-08-03T04:01:59.581Z,19.65
2022-08-03T04:03:03.642Z,19.63
2022-08-03T04:04:08.127Z,19.64
2022-08-03T04:05:13.348Z,19.62
2022-08-03T04:06:17.737Z,19.62
2022-08-03T04:07:22.230Z,19.61
2022-08-03T04:08:27.403Z,19.6
2022-08-03T04:09:31.877Z,19.61
2022-08-03T04:10:36.355Z,19.6
2022-08-03T04:11:40.917Z,19.61
2022-08-03T04:14:07.918Z,19.59
2022-08-03T04:15:11.613Z,19.6
2022-08-03T04:16:23.443Z,19.63
2022-08-03T04:17:41.130Z,19.67
2022-08-03T04:18:45.166Z,19.69
2022-08-03T04:19:49.562Z,19.69
2022-08-03T04:20:54.040Z,19.7
2022-08-03T04:21:59.052Z,19.68
2022-08-03T04:23:14.238Z,19.66
2022-08-03T04:25:44.546Z,19.64
2022-08-03T04:26:53.094Z,19.65
2022-08-03T04:28:21.046Z,19.69
2022-08-03T04:29:27.403Z,19.74
2022-08-03T04:30:37.072Z,19.75
2022-08-03T04:31:44.782Z,19.77
2022-08-03T04:32:49.979Z,19.77
2022-08-03T04:34:02.612Z,19.78
2022-08-03T04:35:12.301Z,19.77
2022-08-03T04:36:16.323Z,19.73
2022-08-03T04:37:21.338Z,19.75
2022-08-03T04:39:33.648Z,19.75
2022-08-03T04:40:37.423Z,19.77
2022-08-03T04:42:02.407Z,19.81
2022-08-03T04:43:11.772Z,19.83
2022-08-03T04:44:28.774Z,19.86
2022-08-03T04:45:33.091Z,19.9
2022-08-03T04:46:37.556Z,19.93
2022-08-03T04:47:42.144Z,19.94
2022-08-03T04:48:46.615Z,19.95
2022-08-03T04:49:51.116Z,19.96
2022-08-03T04:50:55.571Z,19.96
2022-08-03T04:52:05.666Z,19.98
2022-08-03T04:53:09.725Z,20
2022-08-03T04:54:14.208Z,20.02
2022-08-03T04:55:19.025Z,20.05
2022-08-03T04:56:33.963Z,20.1
2022-08-03T04:57:38.057Z,20.13
2022-08-03T04:58:42.481Z,20.15
2022-08-03T04:59:47.015Z,20.17
2022-08-03T05:00:51.561Z,20.2
2022-08-03T05:01:57.702Z,20.23
2022-08-03T05:03:24.072Z,20.27
2022-08-03T05:04:29.064Z,20.3
2022-08-03T05:05:49.048Z,20.34
2022-08-03T05:06:56.106Z,20.4
2022-08-03T05:08:11.356Z,20.45
2022-08-03T05:09:25.967Z,20.5
2022-08-03T05:10:39.339Z,20.56
2022-08-03T05:11:43.760Z,20.6
2022-08-03T05:12:48.201Z,20.63
2022-08-03T05:13:54.371Z,20.66
2022-08-03T05:14:58.611Z,20.7
2022-08-03T05:16:03.079Z,20.73
2022-08-03T05:17:07.590Z,20.77
2022-08-03T05:18:14.639Z,20.79
2022-08-03T05:19:19.000Z,20.81
2022-08-03T05:20:23.487Z,20.86
2022-08-03T05:21:41.817Z,20.89
2022-08-03T05:22:51.937Z,20.94
2022-08-03T05:23:56.433Z,21
2022-08-03T05:25:00.881Z,21.07
2022-08-03T05:26:05.344Z,21.11
2022-08-03T05:27:09.841Z,21.16
2022-08-03T05:28:14.701Z,21.21
2022-08-03T05:29:19.215Z,21.25
2022-08-03T05:30:34.627Z,21.3
2022-08-03T05:31:39.305Z,21.36
2022-08-03T05:32:45.453Z,21.42
2022-08-03T05:36:02.954Z,21.63
2022-08-03T05:37:09.320Z,21.76
2022-08-03T05:38:24.209Z,21.86
2022-08-03T05:39:37.546Z,21.96
2022-08-03T05:41:20.876Z,22.08
2022-08-03T05:42:11.895Z,22.19
2022-08-03T05:43:19.831Z,22.32
2022-08-03T05:44:24.129Z,22.45
2022-08-03T05:45:29.223Z,22.61
2022-08-03T05:46:59.277Z,22.8
2022-08-03T05:48:03.298Z,22.96
2022-08-03T05:49:11.484Z,23.15
2022-08-03T05:50:15.909Z,23.28
2022-08-03T05:51:20.459Z,23.44
2022-08-03T05:52:27.973Z,23.59
2022-08-03T05:53:32.566Z,23.73
2022-08-03T05:54:55.648Z,23.91
2022-08-03T05:56:14.858Z,24.11
2022-08-03T05:57:24.504Z,24.29
2022-08-03T05:58:30.171Z,24.47
2022-08-03T06:00:31.404Z,24.73
2022-08-03T06:01:35.463Z,24.85
2022-08-03T06:10:34.759Z,25.86
2022-08-03T06:11:39.197Z,26.04
2022-08-03T07:07:31.266Z,31.48
2022-08-03T07:30:09.546Z,35.6
2022-08-03T07:31:21.960Z,35.91
2022-08-03T07:32:26.256Z,36.24
2022-08-03T07:33:30.819Z,36.3
2022-08-03T07:34:36.849Z,36.23
2022-08-03T07:35:41.609Z,36.44
2022-08-03T07:36:46.182Z,36.49
2022-08-03T07:37:55.377Z,36.56
2022-08-03T07:38:59.740Z,36.61
2022-08-03T07:40:04.348Z,36.93
2022-08-03T07:41:08.886Z,37.03
2022-08-03T07:42:13.616Z,37.12
2022-08-03T07:43:23.946Z,37.24
2022-08-03T07:44:28.546Z,37.23
2022-08-03T07:45:33.641Z,37.44
2022-08-03T07:46:38.284Z,37.44
2022-08-03T07:47:53.158Z,37.4
2022-08-03T07:48:58.685Z,37.65
2022-08-03T07:50:04.544Z,37.83
2022-08-03T07:51:09.222Z,37.99
2022-08-03T07:52:14.224Z,38.18
2022-08-03T07:53:19.121Z,38.22
2022-08-03T07:54:23.742Z,38.38
2022-08-03T07:55:28.346Z,38.47
2022-08-03T07:56:32.923Z,38.58
2022-08-03T07:57:37.752Z,38.65
2022-08-03T07:58:42.315Z,38.71
2022-08-03T08:00:02.060Z,38.84
2022-08-03T08:01:07.276Z,38.9
2022-08-03T08:02:13.752Z,38.9
2022-08-03T08:03:18.371Z,39.03
2022-08-03T08:04:22.963Z,39.2
2022-08-03T08:05:27.558Z,39.21
2022-08-03T08:06:32.235Z,39.25
2022-08-03T08:07:40.359Z,39.44
2022-08-03T08:08:44.813Z,39.6
2022-08-03T08:09:49.438Z,39.74
2022-08-03T08:10:58.934Z,39.91
2022-08-03T08:12:03.283Z,39.97
2022-08-03T08:13:13.015Z,40.08
2022-08-03T08:14:17.722Z,40.22
2022-08-03T08:15:22.385Z,40.23
2022-08-03T08:16:27.732Z,40.22
2022-08-03T08:17:35.838Z,40.27
2022-08-03T08:18:40.292Z,40.44
2022-08-03T08:19:53.269Z,40.48
2022-08-03T08:20:59.385Z,40.55
2022-08-03T08:22:06.998Z,40.59
2022-08-03T08:23:39.940Z,40.65
2022-08-03T08:24:37.084Z,40.66
2022-08-03T08:25:45.052Z,40.65
2022-08-03T08:26:51.414Z,40.62
2022-08-03T08:28:21.665Z,40.73
2022-08-03T08:29:19.868Z,40.75
2022-08-03T08:30:24.439Z,40.9
2022-08-03T08:31:29.069Z,41.04
2022-08-03T08:32:33.646Z,41.02
2022-08-03T08:34:03.466Z,41.16
2022-08-03T08:35:02.216Z,41.24
2022-08-03T08:36:06.767Z,41.27
2022-08-03T08:37:11.432Z,41.44
2022-08-03T08:38:16.007Z,41.55
2022-08-03T08:39:20.608Z,41.52
2022-08-03T08:40:25.212Z,41.75
2022-08-03T08:41:32.544Z,41.78
2022-08-03T08:42:37.011Z,41.8
2022-08-03T08:43:41.622Z,41.82
2022-08-03T08:44:46.220Z,41.85
2022-08-03T08:45:50.846Z,41.75
2022-08-03T08:46:55.499Z,42.01
2022-08-03T08:48:08.640Z,42.09
2022-08-03T08:49:13.145Z,42.12
2022-08-03T08:50:28.333Z,42.15
2022-08-03T08:51:50.525Z,42.15
2022-08-03T08:52:56.778Z,42.22
2022-08-03T08:54:01.870Z,42.16
2022-08-03T08:55:06.451Z,42.22
2022-08-03T08:56:11.037Z,42.22
2022-08-03T08:57:41.731Z,42.06
2022-08-03T08:58:39.750Z,42.11
2022-08-03T08:59:52.475Z,42.1
2022-08-03T09:01:01.805Z,42
2022-08-03T09:02:06.448Z,41.97
2022-08-03T09:03:22.445Z,41.87
2022-08-03T09:04:31.715Z,41.77
2022-08-03T09:05:55.648Z,41.71
2022-08-03T09:07:29.215Z,41.62
2022-08-03T09:08:24.137Z,41.56
2022-08-03T09:10:08.249Z,41.52
2022-08-03T09:10:52.689Z,41.39
2022-08-03T09:12:35.260Z,41.32
2022-08-03T09:13:21.118Z,41.36
2022-08-03T09:14:42.217Z,41.25
2022-08-03T09:16:00.805Z,41.25
2022-08-03T09:17:05.847Z,41.27
2022-08-03T09:18:10.351Z,41.3
2022-08-03T09:19:14.928Z,41.26
2022-08-03T09:20:19.584Z,41.33
2022-08-03T09:21:33.820Z,41.38
2022-08-03T09:22:39.119Z,41.31
2022-08-03T09:24:01.840Z,41.39
2022-08-03T09:25:25.030Z,41.42
2022-08-03T09:26:29.038Z,41.49
2022-08-03T09:27:33.542Z,41.55
2022-08-03T09:28:56.288Z,41.49
2022-08-03T09:30:02.053Z,41.45
2022-08-03T09:31:06.608Z,41.44
2022-08-03T09:32:11.282Z,41.44
2022-08-03T09:33:15.874Z,41.34
2022-08-03T09:34:20.475Z,41.38
2022-08-03T09:36:49.139Z,41.45
2022-08-03T09:38:08.644Z,41.48
2022-08-03T09:39:17.632Z,41.4
2022-08-03T09:40:22.987Z,41.46
2022-08-03T09:41:27.519Z,41.52
2022-08-03T09:42:32.145Z,41.54
2022-08-03T09:43:36.750Z,41.55
2022-08-03T09:44:41.378Z,41.59
2022-08-03T09:45:49.486Z,41.57
2022-08-03T09:46:53.916Z,41.66
2022-08-03T09:47:58.516Z,41.66
2022-08-03T09:49:12.180Z,41.67
2022-08-03T09:50:16.550Z,41.63
2022-08-03T09:51:33.395Z,41.61
2022-08-03T09:52:53.057Z,41.61
2022-08-03T09:54:00.737Z,41.67
2022-08-03T09:55:23.729Z,41.68
2022-08-03T09:56:37.301Z,41.72
2022-08-03T09:57:44.699Z,41.8
2022-08-03T09:58:49.170Z,41.78
2022-08-03T10:00:08.129Z,41.73
2022-08-03T10:01:23.626Z,41.6
2022-08-03T10:02:29.807Z,41.63
2022-08-03T10:03:34.383Z,41.57
2022-08-03T10:04:39.000Z,41.54
2022-08-03T10:05:43.556Z,41.5
2022-08-03T10:06:48.130Z,41.43
2022-08-03T10:07:52.748Z,41.41
2022-08-03T10:08:57.617Z,41.37
2022-08-03T10:10:28.749Z,41.29
2022-08-03T10:11:29.754Z,41.25
2022-08-03T10:12:38.341Z,41.18
2022-08-03T10:13:42.760Z,41.14
2022-08-03T10:14:47.412Z,41.11
2022-08-03T10:16:20.719Z,41
2022-08-03T10:17:17.838Z,40.86
2022-08-03T10:18:22.796Z,40.79
2022-08-03T10:19:27.348Z,40.7
2022-08-03T10:20:45.944Z,40.62
2022-08-03T10:21:50.112Z,40.55
2022-08-03T10:22:54.873Z,40.49
2022-08-03T10:23:59.449Z,40.41
2022-08-03T10:25:04.036Z,40.33
2022-08-03T10:26:09.652Z,40.28
2022-08-03T10:27:22.454Z,40.12
2022-08-03T10:28:29.763Z,40.13
2022-08-03T10:29:34.326Z,40.06
2022-08-03T10:30:42.400Z,40.01
2022-08-03T10:31:58.508Z,39.91
2022-08-03T10:33:03.272Z,39.84
2022-08-03T10:34:07.794Z,39.81
2022-08-03T10:35:21.508Z,39.75
2022-08-03T10:36:28.227Z,39.68
2022-08-03T10:37:34.927Z,39.68
2022-08-03T10:38:39.459Z,39.65
2022-08-03T10:39:44.006Z,39.64
2022-08-03T10:40:59.015Z,39.55
2022-08-03T10:42:14.996Z,39.53
2022-08-03T10:43:22.792Z,39.58
2022-08-03T10:44:27.277Z,39.62
2022-08-03T10:45:35.329Z,39.62
2022-08-03T10:46:45.515Z,39.66
2022-08-03T10:47:49.826Z,39.72
2022-08-03T10:48:54.642Z,39.73
2022-08-03T10:49:59.323Z,39.72
2022-08-03T10:51:03.974Z,39.7
2022-08-03T10:52:31.421Z,39.69
2022-08-03T10:53:35.249Z,39.71
2022-08-03T10:54:43.810Z,39.73
2022-08-03T10:55:53.024Z,39.74
2022-08-03T10:57:09.529Z,39.74
2022-08-03T10:58:30.409Z,39.67
2022-08-03T10:59:35.203Z,39.63
2022-08-03T11:00:40.071Z,39.65
2022-08-03T11:02:00.488Z,39.68
2022-08-03T11:03:05.584Z,39.68
2022-08-03T11:04:20.200Z,39.74
2022-08-03T11:05:27.990Z,39.77
2022-08-03T11:06:37.887Z,39.76
2022-08-03T11:07:42.145Z,39.75
2022-08-03T11:08:47.925Z,39.7
2022-08-03T11:09:52.494Z,39.72
2022-08-03T11:11:00.568Z,39.76
2022-08-03T11:12:05.018Z,39.82
2022-08-03T11:13:09.600Z,39.86
2022-08-03T11:14:14.426Z,39.89
2022-08-03T11:15:19.014Z,39.95
2022-08-03T11:16:23.609Z,40
2022-08-03T11:17:28.196Z,40.01
2022-08-03T11:18:32.791Z,39.99
2022-08-03T11:19:56.450Z,39.95
2022-08-03T11:21:01.361Z,39.86
2022-08-03T11:22:05.912Z,39.7
2022-08-03T11:23:10.454Z,39.53
2022-08-03T11:24:15.007Z,39.35
2022-08-03T11:25:34.746Z,39.12
2022-08-03T11:26:43.473Z,38.89
2022-08-03T11:27:47.960Z,38.73
2022-08-03T11:28:52.984Z,38.58
2022-08-03T11:29:57.504Z,38.44
2022-08-03T11:31:02.101Z,38.31
2022-08-03T11:32:06.738Z,38.15
2022-08-03T11:33:11.303Z,38.03
2022-08-03T11:34:15.871Z,37.91
2022-08-03T11:35:20.616Z,37.8
2022-08-03T11:36:32.764Z,37.68
2022-08-03T11:37:37.142Z,37.56
2022-08-03T11:38:41.647Z,37.44
2022-08-03T11:39:46.242Z,37.36
2022-08-03T11:40:50.897Z,37.29
2022-08-03T11:41:56.038Z,37.21
2022-08-03T11:43:00.655Z,37.12
2022-08-03T11:44:05.280Z,37.05
2022-08-03T11:45:09.872Z,36.99
2022-08-03T11:46:28.312Z,36.92
2022-08-03T11:47:34.267Z,36.84
2022-08-03T11:48:38.765Z,36.75
2022-08-03T11:49:43.420Z,36.66
2022-08-03T11:50:48.660Z,36.58
2022-08-03T11:51:53.238Z,36.53
2022-08-03T11:52:57.816Z,36.45
2022-08-03T11:54:02.436Z,36.34
2022-08-03T11:55:06.999Z,36.28
2022-08-03T11:56:13.361Z,36.24
2022-08-03T11:57:23.052Z,36.18
2022-08-03T11:59:00.532Z,36.12
2022-08-03T12:00:01.082Z,36.11
2022-08-03T12:01:05.561Z,36.08
2022-08-03T12:02:10.121Z,36.06
2022-08-03T12:03:14.877Z,36.05
2022-08-03T12:04:19.571Z,35.93
2022-08-03T12:05:27.413Z,35.84
2022-08-03T12:06:31.883Z,35.83
2022-08-03T12:08:02.970Z,35.81
2022-08-03T12:09:03.829Z,35.77
2022-08-03T12:10:08.267Z,35.75
2022-08-03T12:11:18.145Z,35.72
2022-08-03T12:12:26.462Z,35.72
2022-08-03T12:13:57.346Z,35.72
2022-08-03T12:14:54.759Z,35.71
2022-08-03T12:15:59.451Z,35.67
2022-08-03T12:17:04.286Z,35.67
2022-08-03T12:18:12.365Z,35.66
2022-08-03T12:19:19.089Z,35.64
2022-08-03T12:20:34.494Z,35.61
2022-08-03T12:21:39.657Z,35.59
2022-08-03T12:22:44.377Z,35.56
2022-08-03T12:23:49.016Z,35.55
2022-08-03T12:24:53.872Z,35.43
2022-08-03T12:25:58.412Z,35.44
2022-08-03T12:27:02.965Z,35.43
2022-08-03T12:28:28.202Z,35.39
2022-08-03T12:29:31.446Z,35.35
2022-08-03T12:30:36.012Z,35.33
2022-08-03T12:31:40.496Z,35.31
2022-08-03T12:32:45.234Z,35.24
2022-08-03T12:33:49.778Z,35.14
2022-08-03T12:34:54.335Z,35.1
2022-08-03T12:35:58.915Z,35.08
2022-08-03T12:37:19.337Z,35.02
2022-08-03T12:38:27.207Z,34.92
2022-08-03T12:39:31.803Z,34.93
2022-08-03T12:40:36.328Z,34.92
2022-08-03T12:41:40.869Z,34.9
2022-08-03T12:42:45.431Z,34.9
2022-08-03T12:43:50.025Z,34.89
2022-08-03T12:44:56.676Z,34.86
2022-08-03T12:46:01.144Z,34.85
2022-08-03T12:47:05.691Z,34.83
2022-08-03T12:48:28.049Z,34.83
2022-08-03T12:49:39.674Z,34.82
2022-08-03T12:50:53.880Z,34.84
2022-08-03T12:51:58.072Z,34.84
2022-08-03T12:53:02.616Z,34.83
2022-08-03T12:54:07.164Z,34.81
2022-08-03T12:55:11.818Z,34.81
2022-08-03T12:56:16.654Z,34.79
2022-08-03T12:57:22.251Z,34.78
2022-08-03T12:58:29.331Z,34.77
2022-08-03T12:59:41.370Z,34.75
2022-08-03T13:00:53.105Z,34.74
2022-08-03T13:02:01.200Z,34.73
2022-08-03T13:03:38.808Z,34.71
2022-08-03T13:04:37.376Z,34.7
2022-08-03T13:05:41.915Z,34.69
2022-08-03T13:07:02.864Z,34.69
2022-08-03T13:08:15.514Z,34.68
2022-08-03T13:09:21.391Z,34.68
2022-08-03T13:10:25.778Z,34.68
2022-08-03T13:11:52.562Z,34.67
2022-08-03T13:12:54.296Z,34.67
2022-08-03T13:13:58.780Z,34.66
2022-08-03T13:15:03.367Z,34.65
2022-08-03T13:16:08.002Z,34.65
2022-08-03T13:17:12.926Z,34.64
2022-08-03T13:18:17.835Z,34.61
2022-08-03T13:19:22.411Z,34.62
2022-08-03T13:20:28.265Z,34.6
2022-08-03T13:21:32.773Z,34.55
2022-08-03T13:22:37.588Z,34.54
2022-08-03T13:23:42.160Z,34.54
2022-08-03T13:24:47.282Z,34.52
2022-08-03T13:25:56.438Z,34.45
2022-08-03T13:27:22.626Z,34.42
2022-08-03T13:28:24.759Z,34.41
2022-08-03T13:29:29.262Z,34.42
2022-08-03T13:30:33.780Z,34.43
2022-08-03T13:31:50.668Z,34.43
2022-08-03T13:32:55.514Z,34.41
2022-08-03T13:34:00.145Z,34.41
2022-08-03T13:35:04.709Z,34.39
2022-08-03T13:36:09.464Z,34.38
2022-08-03T13:37:14.035Z,34.37
2022-08-03T13:38:26.884Z,34.36
2022-08-03T13:39:48.428Z,34.36
2022-08-03T13:40:52.694Z,34.37
2022-08-03T13:41:57.145Z,34.37
2022-08-03T13:43:02.266Z,34.37
2022-08-03T13:44:28.312Z,34.33
2022-08-03T13:45:30.729Z,34.31
2022-08-03T13:46:36.829Z,34.31
2022-08-03T13:47:41.336Z,34.32
2022-08-03T13:48:45.837Z,34.31
2022-08-03T13:50:02.652Z,34.32
2022-08-03T13:51:22.335Z,34.25
2022-08-03T13:52:27.615Z,34.28
2022-08-03T13:53:32.245Z,34.25
2022-08-03T13:54:36.776Z,34.28
2022-08-03T13:55:41.334Z,34.27
2022-08-03T13:56:45.905Z,34.27
2022-08-03T13:58:01.767Z,34.26
2022-08-03T13:59:11.723Z,34.26
2022-08-03T14:00:29.184Z,34.25
2022-08-03T14:01:54.741Z,34.26
2022-08-03T14:03:14.786Z,34.26
2022-08-03T14:04:22.791Z,34.29
2022-08-03T14:05:27.098Z,34.3
2022-08-03T14:06:36.595Z,34.31
2022-08-03T14:07:41.133Z,34.3
2022-08-03T14:08:45.683Z,34.29
2022-08-03T14:09:50.261Z,34.28
2022-08-03T14:10:55.112Z,34.28
2022-08-03T14:12:08.879Z,34.25
2022-08-03T14:13:18.458Z,34.25
2022-08-03T14:14:26.522Z,34.28
2022-08-03T14:15:30.932Z,34.3
2022-08-03T14:16:36.144Z,34.31
2022-08-03T14:17:50.340Z,34.31
2022-08-03T14:18:58.338Z,34.32
2022-08-03T14:20:37.652Z,34.31
2022-08-03T14:21:35.130Z,34.31
2022-08-03T14:22:39.606Z,34.31
2022-08-03T14:23:44.920Z,34.32
2022-08-03T14:24:51.605Z,34.31
2022-08-03T14:25:57.465Z,34.28
2022-08-03T14:27:09.517Z,34.28
2022-08-03T14:28:13.904Z,34.28
2022-08-03T14:29:23.963Z,34.25
2022-08-03T14:30:28.237Z,34.24
2022-08-03T14:32:09.362Z,34.24
2022-08-03T14:33:01.073Z,34.23
2022-08-03T14:34:05.441Z,34.22
2022-08-03T14:35:09.999Z,34.2
2022-08-03T14:36:16.476Z,34.22
2022-08-03T14:37:21.984Z,34.22
2022-08-03T14:38:27.048Z,34.2
2022-08-03T14:40:55.545Z,34.22
2022-08-03T14:42:00.120Z,34.23
2022-08-03T14:43:04.677Z,34.23
2022-08-03T14:44:09.258Z,34.24
2022-08-03T14:45:20.821Z,34.24
2022-08-03T14:46:25.107Z,34.22
2022-08-03T14:47:29.704Z,34.22
2022-08-03T14:49:02.914Z,34.21
2022-08-03T14:50:35.066Z,34.2
2022-08-03T14:51:24.687Z,34.2
2022-08-03T14:52:29.146Z,34.19
2022-08-03T14:53:34.239Z,34.2
2022-08-03T14:54:39.827Z,34.2
2022-08-03T14:55:51.708Z,34.19
2022-08-03T14:56:56.536Z,34.18
2022-08-03T14:58:03.077Z,34.17
2022-08-03T14:59:07.670Z,34.16
2022-08-03T15:00:12.204Z,34.13
2022-08-03T15:02:02.038Z,34.1
2022-08-03T15:02:40.801Z,34.09
2022-08-03T15:03:45.484Z,34.09
2022-08-03T15:04:50.027Z,34.1
2022-08-03T15:05:54.861Z,34.12
2022-08-03T15:06:59.457Z,34.11
2022-08-03T15:08:09.564Z,34.11
2022-08-03T15:09:24.214Z,34.11
2022-08-03T15:10:40.712Z,34.1
2022-08-03T15:11:53.139Z,34.11
2022-08-03T15:12:57.460Z,34.1
2022-08-03T15:14:09.786Z,34.09
2022-08-03T15:15:16.147Z,34.08
2022-08-03T15:16:20.629Z,34.08
2022-08-03T15:17:25.187Z,34.05
2022-08-03T15:18:29.725Z,34.04
2022-08-03T15:20:00.120Z,34.02
2022-08-03T15:20:58.185Z,34
2022-08-03T15:22:02.780Z,33.99
2022-08-03T15:23:07.342Z,33.98
2022-08-03T15:24:11.881Z,33.97
2022-08-03T15:26:02.558Z,33.95
2022-08-03T15:26:42.269Z,33.94
2022-08-03T15:28:03.256Z,33.94
2022-08-03T15:29:08.159Z,33.94
2022-08-03T15:30:12.707Z,33.95
2022-08-03T15:31:19.247Z,33.94
2022-08-03T15:32:23.716Z,33.94
2022-08-03T15:33:28.317Z,33.95
2022-08-03T15:34:32.881Z,33.93
2022-08-03T15:35:38.008Z,33.91
2022-08-03T15:36:42.569Z,33.9
2022-08-03T15:37:47.354Z,33.9
2022-08-03T15:38:52.141Z,33.89
2022-08-03T15:40:01.341Z,33.87
2022-08-03T15:41:13.913Z,33.85
2022-08-03T15:42:18.175Z,33.84
2022-08-03T15:43:22.702Z,33.83
2022-08-03T15:44:27.253Z,33.82
2022-08-03T15:45:37.205Z,33.81
2022-08-03T15:46:41.665Z,33.8
2022-08-03T15:47:46.199Z,33.8
2022-08-03T15:48:50.836Z,33.8
2022-08-03T15:49:55.395Z,33.77
2022-08-03T15:51:00.000Z,33.76
2022-08-03T15:52:04.613Z,33.76
2022-08-03T15:53:09.172Z,33.73
2022-08-03T15:54:13.947Z,33.72
2022-08-03T15:55:18.507Z,33.72
2022-08-03T15:56:27.439Z,33.72
2022-08-03T15:57:33.029Z,33.69
2022-08-03T15:58:59.227Z,33.7
2022-08-03T16:00:07.023Z,33.72
2022-08-03T16:01:20.114Z,33.69
2022-08-03T16:02:24.617Z,33.7
2022-08-03T16:03:29.127Z,33.72
2022-08-03T16:04:33.693Z,33.73
2022-08-03T16:05:38.350Z,33.74
2022-08-03T16:06:42.966Z,33.74
2022-08-03T16:07:58.664Z,33.74
2022-08-03T16:09:22.778Z,33.73
2022-08-03T16:10:32.913Z,33.73
2022-08-03T16:11:37.383Z,33.75
2022-08-03T16:12:41.995Z,33.77
2022-08-03T16:14:04.866Z,33.76
2022-08-03T16:15:10.495Z,33.77
2022-08-03T16:16:14.947Z,33.79